createdAt,value
2019-03-18T00:00:17.461Z,3.17
2019-03-18T00:02:45.877Z,3.20
2019-03-18T00:05:14.309Z,3.00
2019-03-18T00:07:42.995Z,3.30
2019-03-18T00:10:11.425Z,3.27
2019-03-18T00:12:39.842Z,2.60
2019-03-18T00:15:09.506Z,2.55
2019-03-18T00:17:37.929Z,2.90
2019-03-18T00:20:08.297Z,3.00
2019-03-18T00:22:36.721Z,3.10
2019-03-18T00:25:07.085Z,3.22
2019-03-18T00:27:35.500Z,3.12
2019-03-18T00:30:06.354Z,2.80
2019-03-18T00:32:34.773Z,3.10
2019-03-18T00:35:03.565Z,3.27
2019-03-18T00:37:31.989Z,3.10
2019-03-18T00:40:00.413Z,3.52
2019-03-18T00:42:28.842Z,4.08
2019-03-18T00:44:57.258Z,3.50
2019-03-18T00:47:25.685Z,3.00
2019-03-18T00:49:54.109Z,3.08
2019-03-18T00:52:22.583Z,3.30
2019-03-18T00:54:51.056Z,3.50
2019-03-18T00:57:19.741Z,3.20
2019-03-18T00:59:48.167Z,3.20
2019-03-18T01:02:16.589Z,3.20
2019-03-18T01:04:45.013Z,3.40
2019-03-18T01:07:13.488Z,3.70
2019-03-18T01:09:41.917Z,3.10
2019-03-18T01:12:10.618Z,3.25
2019-03-18T01:14:39.041Z,3.20
2019-03-18T01:17:07.456Z,3.30
2019-03-18T01:19:35.881Z,3.42
2019-03-18T01:22:04.308Z,3.30
2019-03-18T01:24:32.728Z,3.90
2019-03-18T01:27:01.501Z,3.67
2019-03-18T01:29:30.295Z,3.37
2019-03-18T01:31:58.728Z,3.30
2019-03-18T01:34:27.156Z,3.37
2019-03-18T01:36:55.575Z,3.60
2019-03-18T01:39:23.988Z,3.65
2019-03-18T01:41:52.425Z,3.15
2019-03-18T01:44:20.849Z,3.80
2019-03-18T01:46:49.267Z,3.30
2019-03-18T01:49:17.704Z,3.50
2019-03-18T01:51:46.141Z,3.20
2019-03-18T01:54:14.624Z,3.50
2019-03-18T01:56:43.058Z,4.25
2019-03-18T01:59:11.484Z,4.40
2019-03-18T02:01:39.912Z,4.53
2019-03-18T02:04:08.338Z,4.80
2019-03-18T02:06:36.772Z,4.50
2019-03-18T02:09:06.568Z,5.28
2019-03-18T02:11:35.007Z,5.00
2019-03-18T02:14:03.446Z,5.33
2019-03-18T02:16:31.860Z,5.90
2019-03-18T02:19:00.284Z,5.40
2019-03-18T02:21:28.713Z,4.30
2019-03-18T02:23:57.140Z,4.55
2019-03-18T02:26:25.571Z,5.20
2019-03-18T02:28:54.006Z,5.28
2019-03-18T02:31:22.433Z,5.10
2019-03-18T02:33:50.863Z,5.20
2019-03-18T02:36:19.280Z,5.92
2019-03-18T02:38:47.722Z,5.90
2019-03-18T02:41:16.134Z,5.05
2019-03-18T02:43:44.573Z,4.90
2019-03-18T02:46:13.003Z,5.10
2019-03-18T02:48:41.451Z,4.85
2019-03-18T02:51:09.950Z,5.08
2019-03-18T02:53:38.373Z,5.00
2019-03-18T02:56:06.835Z,4.40
2019-03-18T02:58:35.580Z,4.65
2019-03-18T03:01:04.012Z,4.00
2019-03-18T03:03:32.434Z,4.40
2019-03-18T03:06:00.872Z,4.10
2019-03-18T03:08:29.286Z,3.67
2019-03-18T03:10:57.719Z,3.95
2019-03-18T03:13:26.142Z,3.05
2019-03-18T03:15:54.590Z,3.33
2019-03-18T03:18:23.009Z,2.90
2019-03-18T03:20:51.444Z,2.87
2019-03-18T03:23:19.889Z,2.83
2019-03-18T03:25:48.390Z,2.80
2019-03-18T03:28:16.825Z,3.10
2019-03-18T03:30:45.272Z,2.80
2019-03-18T03:33:13.696Z,3.37
2019-03-18T03:35:42.198Z,2.60
2019-03-18T03:38:10.966Z,2.50
2019-03-18T03:40:39.502Z,2.80
2019-03-18T03:43:07.974Z,2.70
2019-03-18T03:45:36.392Z,3.10
2019-03-18T03:48:04.813Z,3.10
2019-03-18T03:50:33.273Z,3.15
2019-03-18T03:53:01.750Z,4.30
2019-03-18T03:55:30.562Z,2.70
2019-03-18T03:57:59.251Z,3.07
2019-03-18T04:00:27.759Z,2.77
2019-03-18T04:02:56.480Z,2.45
2019-03-18T04:05:24.946Z,2.67
2019-03-18T04:07:53.418Z,2.50
2019-03-18T04:10:21.847Z,2.50
2019-03-18T04:12:50.290Z,2.50
2019-03-18T04:15:18.719Z,3.30
2019-03-18T04:17:47.179Z,3.02
2019-03-18T04:20:16.621Z,2.80
2019-03-18T04:22:45.365Z,2.75
2019-03-18T04:25:13.918Z,3.27
2019-03-18T04:27:42.813Z,2.70
2019-03-18T04:30:13.600Z,3.20
2019-03-18T04:32:42.070Z,3.10
2019-03-18T04:35:11.657Z,3.10
2019-03-18T04:37:40.212Z,2.72
2019-03-18T04:40:10.133Z,3.17
2019-03-18T04:42:38.568Z,3.20
2019-03-18T04:45:10.463Z,3.50
2019-03-18T04:47:38.888Z,3.30
2019-03-18T04:50:11.904Z,3.40
2019-03-18T04:52:40.436Z,2.98
2019-03-18T04:55:09.298Z,3.40
2019-03-18T04:57:37.729Z,3.70
2019-03-18T05:00:11.481Z,3.70
2019-03-18T05:02:39.947Z,3.50
2019-03-18T05:05:08.774Z,3.50
2019-03-18T05:07:37.208Z,4.10
2019-03-18T05:10:07.655Z,4.20
2019-03-18T05:12:36.088Z,2.92
2019-03-18T05:15:06.414Z,2.55
2019-03-18T05:17:34.845Z,2.53
2019-03-18T05:20:04.050Z,2.30
2019-03-18T05:22:32.844Z,2.87
2019-03-18T05:25:01.254Z,2.43
2019-03-18T05:27:29.748Z,2.90
2019-03-18T05:29:58.172Z,3.00
2019-03-18T05:32:26.594Z,2.40
2019-03-18T05:34:55.013Z,2.90
2019-03-18T05:37:23.432Z,2.80
2019-03-18T05:39:51.869Z,3.40
2019-03-18T05:42:20.603Z,3.70
2019-03-18T05:44:49.024Z,3.60
2019-03-18T05:47:17.449Z,4.00
2019-03-18T05:49:45.878Z,3.50
2019-03-18T05:52:14.300Z,3.90
2019-03-18T05:54:42.732Z,4.90
2019-03-18T05:57:11.156Z,3.87
2019-03-18T05:59:40.449Z,4.50
2019-03-18T06:02:08.959Z,4.15
2019-03-18T06:04:37.382Z,4.67
2019-03-18T06:07:05.805Z,4.60
2019-03-18T06:09:34.244Z,5.20
2019-03-18T06:12:02.663Z,4.30
2019-03-18T06:14:31.097Z,4.37
2019-03-18T06:16:59.536Z,4.60
2019-03-18T06:19:27.953Z,4.60
2019-03-18T06:21:56.380Z,4.60
2019-03-18T06:24:24.833Z,5.12
2019-03-18T06:26:53.252Z,5.00
2019-03-18T06:29:21.677Z,4.90
2019-03-18T06:31:50.121Z,4.22
2019-03-18T06:34:18.545Z,4.60
2019-03-18T06:36:46.985Z,4.28
2019-03-18T06:39:15.417Z,5.15
2019-03-18T06:41:43.897Z,5.10
2019-03-18T06:44:12.328Z,5.62
2019-03-18T06:46:40.781Z,4.30
2019-03-18T06:49:09.218Z,4.37
2019-03-18T06:51:38.025Z,5.10
2019-03-18T06:54:06.475Z,5.40
2019-03-18T06:56:34.917Z,4.70
2019-03-18T06:59:03.357Z,5.30
2019-03-18T07:01:31.879Z,4.80
2019-03-18T07:04:00.307Z,4.45
2019-03-18T07:06:28.779Z,4.95
2019-03-18T07:08:57.204Z,4.95
2019-03-18T07:11:25.642Z,5.00
2019-03-18T07:13:54.068Z,5.13
2019-03-18T07:16:22.508Z,5.00
2019-03-18T07:18:50.921Z,4.87
2019-03-18T07:21:19.371Z,5.22
2019-03-18T07:23:47.784Z,5.45
2019-03-18T07:26:16.257Z,5.20
2019-03-18T07:28:44.682Z,5.10
2019-03-18T07:31:13.117Z,5.25
2019-03-18T07:33:41.573Z,5.65
2019-03-18T07:36:10.055Z,5.10
2019-03-18T07:38:38.562Z,4.80
2019-03-18T07:41:07.041Z,5.55
2019-03-18T07:43:35.544Z,6.08
2019-03-18T07:46:04.000Z,7.10
2019-03-18T07:48:32.433Z,4.90
2019-03-18T07:51:00.872Z,5.78
2019-03-18T07:53:29.317Z,5.10
2019-03-18T07:55:57.752Z,4.95
2019-03-18T07:58:26.188Z,5.47
2019-03-18T08:00:54.752Z,4.83
2019-03-18T08:03:23.220Z,5.67
2019-03-18T08:05:51.650Z,5.73
2019-03-18T08:08:20.209Z,6.00
2019-03-18T08:10:48.720Z,5.60
2019-03-18T08:13:17.153Z,4.80
2019-03-18T08:15:45.578Z,5.08
2019-03-18T08:18:14.005Z,4.80
2019-03-18T08:20:42.422Z,5.50
2019-03-18T08:23:10.890Z,4.72
2019-03-18T08:25:39.769Z,6.40
2019-03-18T08:28:08.205Z,4.83
2019-03-18T08:30:36.629Z,5.40
2019-03-18T08:33:05.076Z,5.33
2019-03-18T08:35:33.504Z,4.90
2019-03-18T08:38:01.967Z,4.30
2019-03-18T08:40:30.449Z,4.50
2019-03-18T08:42:58.949Z,4.53
2019-03-18T08:45:27.408Z,4.58
2019-03-18T08:47:55.879Z,4.80
2019-03-18T08:50:24.300Z,4.42
2019-03-18T08:52:52.738Z,4.20
2019-03-18T08:55:21.171Z,4.05
2019-03-18T08:57:49.635Z,4.25
2019-03-18T09:00:18.702Z,4.08
2019-03-18T09:02:47.121Z,3.47
2019-03-18T09:05:15.548Z,4.03
2019-03-18T09:07:43.965Z,3.80
2019-03-18T09:10:15.077Z,3.85
2019-03-18T09:12:43.578Z,4.15
2019-03-18T09:15:12.654Z,3.60
2019-03-18T09:17:41.076Z,3.90
2019-03-18T09:20:18.024Z,5.20
2019-03-18T09:22:46.458Z,4.05
2019-03-18T09:25:14.907Z,4.10
2019-03-18T09:27:43.390Z,3.80
2019-03-18T09:30:16.920Z,2.70
2019-03-18T09:32:45.407Z,3.40
2019-03-18T09:35:13.897Z,3.40
2019-03-18T09:37:42.312Z,3.33
2019-03-18T09:40:17.769Z,3.47
2019-03-18T09:42:46.291Z,3.37
2019-03-18T09:45:16.829Z,3.20
2019-03-18T09:47:45.306Z,2.90
2019-03-18T09:50:14.095Z,2.50
2019-03-18T09:52:42.906Z,2.70
2019-03-18T09:55:11.453Z,2.55
2019-03-18T09:57:39.897Z,2.70
2019-03-18T10:00:15.840Z,2.72
2019-03-18T10:02:44.251Z,3.05
2019-03-18T10:05:12.758Z,3.52
2019-03-18T10:07:41.457Z,5.03
2019-03-18T10:10:11.224Z,4.35
2019-03-18T10:12:39.648Z,5.80
2019-03-18T10:15:13.862Z,5.10
2019-03-18T10:17:42.293Z,4.97
2019-03-18T10:20:10.793Z,6.12
2019-03-18T10:22:39.237Z,5.30
2019-03-18T10:25:08.593Z,5.73
2019-03-18T10:27:37.803Z,6.08
2019-03-18T10:30:09.816Z,4.87
2019-03-18T10:32:38.417Z,5.30
2019-03-18T10:35:07.186Z,5.33
2019-03-18T10:37:35.656Z,5.27
2019-03-18T10:40:06.503Z,5.40
2019-03-18T10:42:35.039Z,4.78
2019-03-18T10:45:03.496Z,5.10
2019-03-18T10:47:31.966Z,4.65
2019-03-18T10:50:00.418Z,4.43
2019-03-18T10:52:28.950Z,4.90
2019-03-18T10:54:57.378Z,4.97
2019-03-18T10:57:26.057Z,4.80
2019-03-18T10:59:54.594Z,5.83
2019-03-18T11:02:23.113Z,4.53
2019-03-18T11:04:51.570Z,5.05
2019-03-18T11:07:20.060Z,5.65
2019-03-18T11:09:48.480Z,5.30
2019-03-18T11:12:16.919Z,5.47
2019-03-18T11:14:45.337Z,5.15
2019-03-18T11:17:13.778Z,5.80
2019-03-18T11:19:42.203Z,4.70
2019-03-18T11:22:11.030Z,5.10
2019-03-18T11:24:39.477Z,4.90
2019-03-18T11:27:07.902Z,5.80
2019-03-18T11:29:36.330Z,5.70
2019-03-18T11:32:04.909Z,5.92
2019-03-18T11:34:33.323Z,5.35
2019-03-18T11:37:01.746Z,2.10
2019-03-18T11:39:30.171Z,1.80
2019-03-18T11:41:58.682Z,1.90
2019-03-18T11:44:27.102Z,2.25
2019-03-18T11:46:55.628Z,1.90
2019-03-18T11:49:24.057Z,2.12
2019-03-18T11:51:52.793Z,2.40
2019-03-18T11:54:21.227Z,2.70
2019-03-18T11:56:49.825Z,2.40
2019-03-18T11:59:20.866Z,2.42
2019-03-18T12:01:48.388Z,2.60
2019-03-18T12:04:16.833Z,3.25
2019-03-18T12:06:45.319Z,3.15
2019-03-18T12:09:13.752Z,3.40
2019-03-18T12:11:43.013Z,3.75
2019-03-18T12:14:11.451Z,3.85
2019-03-18T12:16:39.870Z,4.03
2019-03-18T12:19:08.309Z,4.50
2019-03-18T12:21:36.800Z,5.20
2019-03-18T12:24:05.345Z,4.00
2019-03-18T12:26:34.716Z,5.50
2019-03-18T12:29:03.266Z,5.17
2019-03-18T12:31:31.765Z,6.40
2019-03-18T12:34:00.232Z,4.97
2019-03-18T12:36:28.686Z,4.67
2019-03-18T12:38:57.124Z,5.12
2019-03-18T12:41:25.561Z,4.77
2019-03-18T12:43:53.999Z,4.70
2019-03-18T12:46:22.417Z,4.12
2019-03-18T12:48:51.330Z,3.75
2019-03-18T12:51:19.745Z,4.42
2019-03-18T12:53:48.185Z,4.40
2019-03-18T12:56:16.627Z,4.30
2019-03-18T12:58:45.199Z,3.85
2019-03-18T13:01:13.640Z,4.47
2019-03-18T13:03:42.397Z,5.20
2019-03-18T13:06:10.826Z,5.10
2019-03-18T13:08:39.275Z,4.90
2019-03-18T13:11:07.695Z,4.40
2019-03-18T13:13:36.126Z,4.90
2019-03-18T13:16:04.578Z,4.75
2019-03-18T13:18:33.009Z,5.10
2019-03-18T13:21:07.932Z,4.90
2019-03-18T13:23:31.627Z,4.63
2019-03-18T13:26:00.074Z,4.72
2019-03-18T13:28:28.532Z,5.50
2019-03-18T13:30:56.976Z,5.25
2019-03-18T13:33:25.436Z,5.33
2019-03-18T13:35:53.927Z,4.37
2019-03-18T13:38:22.385Z,4.60
2019-03-18T13:40:50.813Z,4.58
2019-03-18T13:43:19.239Z,5.00
2019-03-18T13:45:55.278Z,5.37
2019-03-18T13:48:18.233Z,4.83
2019-03-18T13:50:46.698Z,5.30
2019-03-18T13:53:15.130Z,4.33
2019-03-18T13:55:43.983Z,5.15
2019-03-18T13:58:13.166Z,4.33
2019-03-18T14:00:41.604Z,4.15
2019-03-18T14:03:10.032Z,4.67
2019-03-18T14:05:38.472Z,5.50
2019-03-18T14:08:06.893Z,5.50
2019-03-18T14:10:35.321Z,5.50
2019-03-18T14:13:03.761Z,4.78
2019-03-18T14:15:32.190Z,5.30
2019-03-18T14:18:00.709Z,5.50
2019-03-18T14:20:29.817Z,4.50
2019-03-18T14:22:58.332Z,5.10
2019-03-18T14:25:26.751Z,4.30
2019-03-18T14:27:55.187Z,3.45
2019-03-18T14:30:23.932Z,3.60
2019-03-18T14:32:52.442Z,3.50
2019-03-18T14:35:22.129Z,4.00
2019-03-18T14:37:50.808Z,4.23
2019-03-18T14:40:20.888Z,4.30
2019-03-18T14:42:49.324Z,4.90
2019-03-18T14:45:21.921Z,3.98
2019-03-18T14:47:50.686Z,5.30
2019-03-18T14:50:20.252Z,5.22
2019-03-18T14:52:48.864Z,4.80
2019-03-18T14:55:18.239Z,4.60
2019-03-18T14:57:46.793Z,5.60
2019-03-18T15:00:25.700Z,5.00
2019-03-18T15:02:54.169Z,5.00
2019-03-18T15:05:22.644Z,5.60
2019-03-18T15:07:51.107Z,5.90
2019-03-18T15:10:27.618Z,4.70
2019-03-18T15:12:56.073Z,5.37
2019-03-18T15:15:24.512Z,4.95
2019-03-18T15:17:52.992Z,4.47
2019-03-18T15:20:26.045Z,4.72
2019-03-18T15:22:54.478Z,4.75
2019-03-18T15:25:30.767Z,5.25
2019-03-18T15:27:59.190Z,3.80
2019-03-18T15:30:27.644Z,4.70
2019-03-18T15:32:56.081Z,4.30
2019-03-18T15:35:25.094Z,5.83
2019-03-18T15:37:53.497Z,4.60
2019-03-18T15:40:25.020Z,4.30
2019-03-18T15:42:53.456Z,4.78
2019-03-18T15:45:22.709Z,5.22
2019-03-18T15:47:51.191Z,5.05
2019-03-18T15:50:26.981Z,4.40
2019-03-18T15:52:55.430Z,4.50
2019-03-18T15:55:24.633Z,4.35
2019-03-18T15:57:53.257Z,5.45
2019-03-18T16:00:26.645Z,4.80
2019-03-18T16:02:55.084Z,5.93
2019-03-18T16:05:23.577Z,5.10
2019-03-18T16:07:52.330Z,5.10
2019-03-18T16:10:21.119Z,4.87
2019-03-18T16:12:49.563Z,4.70
2019-03-18T16:15:19.541Z,4.72
2019-03-18T16:17:47.969Z,4.55
2019-03-18T16:20:26.962Z,5.35
2019-03-18T16:22:55.442Z,5.17
2019-03-18T16:25:23.888Z,5.28
2019-03-18T16:27:52.304Z,5.30
2019-03-18T16:30:24.158Z,4.55
2019-03-18T16:32:52.586Z,5.20
2019-03-18T16:35:21.015Z,4.47
2019-03-18T16:37:49.435Z,5.57
2019-03-18T16:40:22.443Z,4.83
2019-03-18T16:42:50.877Z,4.67
2019-03-18T16:45:19.939Z,5.67
2019-03-18T16:47:48.692Z,4.75
2019-03-18T16:50:25.292Z,5.80
2019-03-18T16:52:53.740Z,5.10
2019-03-18T16:55:22.776Z,5.27
2019-03-18T16:57:51.325Z,5.12
2019-03-18T17:00:28.079Z,5.65
2019-03-18T17:02:56.713Z,4.42
2019-03-18T17:05:25.200Z,4.95
2019-03-18T17:07:54.386Z,5.67
2019-03-18T17:10:23.266Z,5.95
2019-03-18T17:12:51.764Z,4.90
2019-03-18T17:15:21.011Z,5.05
2019-03-18T17:17:49.458Z,5.17
2019-03-18T17:20:18.816Z,6.17
2019-03-18T17:22:49.972Z,4.80
2019-03-18T17:25:26.545Z,6.10
2019-03-18T17:27:54.966Z,5.12
2019-03-18T17:30:26.327Z,4.72
2019-03-18T17:32:53.557Z,4.80
2019-03-18T17:35:21.997Z,4.33
2019-03-18T17:37:50.753Z,4.40
2019-03-18T17:40:20.320Z,4.80
2019-03-18T17:42:48.768Z,4.20
2019-03-18T17:45:18.896Z,4.60
2019-03-18T17:47:47.405Z,4.15
2019-03-18T17:50:20.542Z,4.47
2019-03-18T17:53:00.847Z,4.58
2019-03-18T17:55:19.165Z,4.53
2019-03-18T17:57:47.635Z,5.20
2019-03-18T18:00:18.728Z,4.60
2019-03-18T18:02:47.282Z,4.80
2019-03-18T18:05:15.703Z,4.70
2019-03-18T18:07:44.153Z,6.15
2019-03-18T18:10:12.662Z,4.72
2019-03-18T18:12:41.117Z,5.20
2019-03-18T18:15:10.833Z,5.83
2019-03-18T18:17:39.270Z,4.40
2019-03-18T18:20:12.913Z,6.60
2019-03-18T18:22:41.379Z,4.57
2019-03-18T18:25:11.448Z,5.00
2019-03-18T18:27:39.934Z,5.22
2019-03-18T18:30:27.705Z,5.65
2019-03-18T18:32:56.193Z,5.05
2019-03-18T18:35:24.644Z,5.37
2019-03-18T18:37:53.137Z,5.80
2019-03-18T18:40:24.182Z,4.05
2019-03-18T18:42:52.703Z,3.70
2019-03-18T18:45:21.472Z,4.60
2019-03-18T18:47:50.093Z,2.92
2019-03-18T18:50:18.698Z,3.95
2019-03-18T18:52:47.138Z,3.50
2019-03-18T18:55:15.742Z,3.30
2019-03-18T18:57:44.243Z,2.40
2019-03-18T19:00:20.548Z,2.77
2019-03-18T19:02:49.921Z,2.58
2019-03-18T19:05:19.921Z,2.80
2019-03-18T19:07:48.514Z,3.40
2019-03-18T19:10:20.292Z,3.08
2019-03-18T19:12:49.155Z,3.30
2019-03-18T19:15:22.141Z,3.45
2019-03-18T19:17:51.699Z,3.58
2019-03-18T19:20:20.168Z,4.25
2019-03-18T19:22:48.584Z,3.27
2019-03-18T19:25:17.654Z,4.00
2019-03-18T19:27:46.105Z,4.23
2019-03-18T19:30:18.754Z,4.60
2019-03-18T19:32:47.245Z,4.45
2019-03-18T19:35:15.984Z,4.05
2019-03-18T19:37:44.694Z,4.58
2019-03-18T19:40:18.748Z,3.85
2019-03-18T19:42:47.244Z,4.30
2019-03-18T19:45:15.714Z,4.30
2019-03-18T19:47:44.202Z,3.90
2019-03-18T19:50:17.725Z,4.50
2019-03-18T19:52:47.117Z,4.65
2019-03-18T19:55:15.672Z,4.60
2019-03-18T19:57:44.093Z,4.63
2019-03-18T20:00:23.163Z,5.07
2019-03-18T20:02:52.273Z,4.60
2019-03-18T20:05:20.692Z,4.37
2019-03-18T20:07:49.141Z,4.85
2019-03-18T20:10:21.389Z,3.90
2019-03-18T20:12:49.807Z,3.75
2019-03-18T20:15:19.094Z,3.87
2019-03-18T20:17:47.549Z,4.20
2019-03-18T20:20:20.156Z,4.60
2019-03-18T20:22:48.668Z,3.90
2019-03-18T20:25:17.154Z,4.50
2019-03-18T20:27:45.626Z,4.20
2019-03-18T20:30:18.315Z,5.10
2019-03-18T20:32:46.738Z,4.67
2019-03-18T20:35:16.842Z,4.45
2019-03-18T20:37:45.272Z,4.90
2019-03-18T20:40:17.162Z,4.85
2019-03-18T20:42:45.937Z,4.90
2019-03-18T20:45:24.996Z,4.17
2019-03-18T20:47:53.436Z,4.67
2019-03-18T20:50:24.180Z,4.70
2019-03-18T20:52:52.618Z,4.83
2019-03-18T20:55:22.401Z,4.22
2019-03-18T20:57:50.834Z,3.87
2019-03-18T21:00:24.041Z,5.10
2019-03-18T21:02:52.582Z,4.50
2019-03-18T21:05:21.177Z,5.10
2019-03-18T21:07:49.681Z,4.12
2019-03-18T21:10:19.245Z,4.35
2019-03-18T21:12:48.082Z,4.60
2019-03-18T21:15:18.402Z,5.00
2019-03-18T21:17:46.842Z,4.20
2019-03-18T21:20:19.503Z,5.42
2019-03-18T21:22:47.939Z,5.22
2019-03-18T21:25:16.425Z,4.92
2019-03-18T21:27:44.865Z,4.80
2019-03-18T21:30:15.323Z,5.00
2019-03-18T21:32:43.749Z,4.80
2019-03-18T21:35:12.240Z,4.77
2019-03-18T21:37:41.097Z,4.30
2019-03-18T21:40:19.503Z,4.78
2019-03-18T21:42:48.013Z,4.50
2019-03-18T21:45:19.124Z,5.33
2019-03-18T21:47:48.309Z,4.27
2019-03-18T21:50:17.076Z,4.22
2019-03-18T21:52:45.604Z,4.20
2019-03-18T21:55:15.127Z,4.72
2019-03-18T21:57:43.633Z,4.28
2019-03-18T22:00:17.793Z,4.72
2019-03-18T22:02:46.299Z,5.20
2019-03-18T22:05:15.113Z,5.42
2019-03-18T22:07:43.613Z,4.55
2019-03-18T22:10:14.084Z,4.17
2019-03-18T22:12:42.506Z,4.05
2019-03-18T22:15:13.446Z,4.90
2019-03-18T22:17:41.913Z,4.00
2019-03-18T22:20:14.969Z,4.17
2019-03-18T22:22:43.386Z,4.00
2019-03-18T22:25:13.157Z,4.83
2019-03-18T22:27:41.664Z,4.17
2019-03-18T22:30:15.309Z,4.30
2019-03-18T22:32:43.902Z,4.40
2019-03-18T22:35:12.608Z,4.92
2019-03-18T22:37:41.034Z,4.40
2019-03-18T22:40:11.417Z,4.00
2019-03-18T22:42:39.845Z,4.40
2019-03-18T22:45:17.205Z,5.60
2019-03-18T22:47:45.622Z,4.72
2019-03-18T22:50:16.333Z,5.22
2019-03-18T22:52:44.756Z,5.30
2019-03-18T22:55:16.052Z,4.62
2019-03-18T22:57:44.541Z,4.95
2019-03-18T23:00:21.631Z,6.10
2019-03-18T23:02:50.233Z,4.90
2019-03-18T23:05:18.745Z,6.10
2019-03-18T23:07:47.174Z,5.50
2019-03-18T23:10:15.609Z,5.62
2019-03-18T23:12:44.098Z,5.45
2019-03-18T23:15:12.580Z,5.30
2019-03-18T23:17:41.477Z,4.85
2019-03-18T23:20:09.976Z,5.60
2019-03-18T23:22:38.414Z,5.30
2019-03-18T23:25:08.213Z,5.17
2019-03-18T23:27:36.956Z,5.35
2019-03-18T23:30:07.907Z,4.80
2019-03-18T23:32:36.331Z,5.07
2019-03-18T23:35:06.219Z,5.80
2019-03-18T23:37:34.649Z,4.70
2019-03-18T23:40:04.630Z,4.70
2019-03-18T23:42:33.224Z,4.58
2019-03-18T23:45:01.650Z,4.20
2019-03-18T23:47:30.157Z,4.60
2019-03-18T23:49:58.583Z,4.25
2019-03-18T23:52:27.006Z,3.83
2019-03-18T23:54:55.486Z,3.90
2019-03-18T23:57:23.958Z,4.22
2019-03-18T23:59:52.416Z,5.10
